createdAt,value
2022-10-09T00:01:25.700Z,6.60
2022-10-09T00:03:55.795Z,9.40
2022-10-09T00:06:28.174Z,7.30
2022-10-09T00:08:56.711Z,7.70
2022-10-09T00:11:27.992Z,9.10
2022-10-09T00:13:56.506Z,9.60
2022-10-09T00:16:25.588Z,10.10
2022-10-09T00:18:54.708Z,9.80
2022-10-09T00:21:32.449Z,8.00
2022-10-09T00:24:03.396Z,8.50
2022-10-09T00:26:32.314Z,9.60
2022-10-09T00:29:00.723Z,11.30
2022-10-09T00:31:29.334Z,9.10
2022-10-09T00:33:57.430Z,12.50
2022-10-09T00:36:27.161Z,11.60
2022-10-09T00:38:55.965Z,10.70
2022-10-09T00:41:27.802Z,11.60
2022-10-09T00:44:01.072Z,9.00
2022-10-09T00:46:40.868Z,11.20
2022-10-09T00:49:22.387Z,10.20
2022-10-09T00:51:52.210Z,9.60
2022-10-09T00:54:24.243Z,7.90
2022-10-09T00:56:53.641Z,14.60
2022-10-09T00:59:22.721Z,8.60
2022-10-09T01:01:50.634Z,9.20
2022-10-09T01:04:19.234Z,8.10
2022-10-09T01:07:12.323Z,7.90
2022-10-09T01:10:03.102Z,7.80
2022-10-09T01:12:39.582Z,10.10
2022-10-09T01:15:28.484Z,11.40
2022-10-09T01:18:02.769Z,9.90
2022-10-09T01:20:51.582Z,11.00
2022-10-09T01:23:37.432Z,8.70
2022-10-09T01:26:24.025Z,9.00
2022-10-09T01:28:59.103Z,8.50
2022-10-09T01:31:31.259Z,9.90
2022-10-09T01:34:01.281Z,9.10
2022-10-09T01:36:33.671Z,9.70
2022-10-09T01:39:04.937Z,11.80
2022-10-09T01:41:33.529Z,11.70
2022-10-09T01:44:01.997Z,11.10
2022-10-09T01:46:32.466Z,8.90
2022-10-09T01:49:37.011Z,10.80
2022-10-09T01:52:41.321Z,12.50
2022-10-09T01:55:28.630Z,13.40
2022-10-09T01:57:56.565Z,12.80
2022-10-09T02:00:25.146Z,12.30
2022-10-09T02:02:55.282Z,12.20
2022-10-09T02:05:26.741Z,9.80
2022-10-09T02:07:56.921Z,13.40
2022-10-09T02:10:26.182Z,12.20
2022-10-09T02:12:59.073Z,11.10
2022-10-09T02:15:34.164Z,11.40
2022-10-09T02:18:13.554Z,13.00
2022-10-09T02:20:47.930Z,15.00
2022-10-09T02:23:18.310Z,13.30
2022-10-09T02:25:46.667Z,12.60
2022-10-09T02:28:14.957Z,11.70
2022-10-09T02:31:11.558Z,13.00
2022-10-09T02:33:39.595Z,14.00
2022-10-09T02:36:07.597Z,15.00
2022-10-09T02:38:35.754Z,13.70
2022-10-09T02:41:04.084Z,13.50
2022-10-09T02:43:32.219Z,17.50
2022-10-09T02:46:00.405Z,15.20
2022-10-09T02:48:28.610Z,13.60
2022-10-09T02:50:56.488Z,14.80
2022-10-09T02:53:24.280Z,12.80
2022-10-09T02:55:52.505Z,14.50
2022-10-09T02:58:20.403Z,20.70
2022-10-09T03:00:52.673Z,14.10
2022-10-09T03:03:21.087Z,11.50
2022-10-09T03:05:49.419Z,15.20
2022-10-09T03:08:17.473Z,10.50
2022-10-09T03:10:45.515Z,14.00
2022-10-09T03:13:13.625Z,14.60
2022-10-09T03:15:41.588Z,13.60
2022-10-09T03:18:09.787Z,15.70
2022-10-09T03:20:38.819Z,12.70
2022-10-09T03:23:06.725Z,14.90
2022-10-09T03:25:34.815Z,13.60
2022-10-09T03:28:03.074Z,18.00
2022-10-09T03:30:30.974Z,13.40
2022-10-09T03:32:59.215Z,13.60
2022-10-09T03:35:29.588Z,17.60
2022-10-09T03:37:57.428Z,11.60
2022-10-09T03:40:25.771Z,12.00
2022-10-09T03:42:53.658Z,11.30
2022-10-09T03:45:21.959Z,15.20
2022-10-09T03:47:49.984Z,15.10
2022-10-09T03:50:17.781Z,14.20
2022-10-09T03:52:46.099Z,15.60
2022-10-09T03:55:14.871Z,11.80
2022-10-09T03:57:42.841Z,12.80
2022-10-09T04:00:11.353Z,16.40
2022-10-09T04:02:39.347Z,13.30
2022-10-09T04:05:07.695Z,14.50
2022-10-09T04:07:35.863Z,12.30
2022-10-09T04:10:05.105Z,15.00
2022-10-09T04:12:33.365Z,11.80
2022-10-09T04:15:01.549Z,15.70
2022-10-09T04:17:29.823Z,12.40
2022-10-09T04:19:57.889Z,12.40
2022-10-09T04:22:26.272Z,13.20
2022-10-09T04:24:54.295Z,15.30
2022-10-09T04:27:22.279Z,18.40
2022-10-09T04:29:50.328Z,13.00
2022-10-09T04:32:18.380Z,13.20
2022-10-09T04:34:46.322Z,10.50
2022-10-09T04:37:14.159Z,11.30
2022-10-09T04:39:42.210Z,13.50
2022-10-09T04:42:10.198Z,16.00
2022-10-09T04:44:38.246Z,15.10
2022-10-09T04:47:11.120Z,11.00
2022-10-09T04:49:39.958Z,9.90
2022-10-09T04:52:08.106Z,14.40
2022-10-09T04:54:36.078Z,12.80
2022-10-09T04:57:04.135Z,12.30
2022-10-09T04:59:32.562Z,14.10
2022-10-09T05:02:00.629Z,10.30
2022-10-09T05:04:28.727Z,13.00
2022-10-09T05:06:57.175Z,13.70
2022-10-09T05:09:25.121Z,13.40
2022-10-09T05:11:53.253Z,12.40
2022-10-09T05:14:21.832Z,12.70
2022-10-09T05:17:12.561Z,14.80
2022-10-09T05:19:41.027Z,14.10
2022-10-09T05:22:09.024Z,12.80
2022-10-09T05:24:36.891Z,13.10
2022-10-09T05:27:08.185Z,13.90
2022-10-09T05:29:36.063Z,11.90
2022-10-09T05:32:04.053Z,15.50
2022-10-09T05:34:34.408Z,12.50
2022-10-09T05:37:02.472Z,12.20
2022-10-09T05:39:30.492Z,12.30
2022-10-09T05:41:59.693Z,15.30
2022-10-09T05:44:28.064Z,14.50
2022-10-09T05:46:56.274Z,12.40
2022-10-09T05:49:24.976Z,16.30
2022-10-09T05:51:54.672Z,11.90
2022-10-09T05:54:23.239Z,12.80
2022-10-09T05:56:51.341Z,13.00
2022-10-09T05:59:22.368Z,11.80
2022-10-09T06:01:51.957Z,10.80
2022-10-09T06:04:23.119Z,10.70
2022-10-09T06:06:51.408Z,10.90
2022-10-09T06:09:23.462Z,13.70
2022-10-09T06:11:53.483Z,9.90
2022-10-09T06:14:22.755Z,9.10
2022-10-09T06:16:51.046Z,10.40
2022-10-09T06:19:20.341Z,10.30
2022-10-09T06:21:49.696Z,13.30
2022-10-09T06:24:28.283Z,10.10
2022-10-09T06:26:58.313Z,11.60
2022-10-09T06:29:26.801Z,11.60
2022-10-09T06:31:54.703Z,12.20
2022-10-09T06:34:24.202Z,12.20
2022-10-09T06:36:52.254Z,13.00
2022-10-09T06:39:20.658Z,12.30
2022-10-09T06:41:49.151Z,12.70
2022-10-09T06:44:43.456Z,11.50
2022-10-09T06:47:11.538Z,15.30
2022-10-09T06:49:39.568Z,9.30
2022-10-09T06:52:07.647Z,13.70
2022-10-09T06:54:35.716Z,10.90
2022-10-09T06:57:03.718Z,10.70
2022-10-09T06:59:31.988Z,11.60
2022-10-09T07:02:00.142Z,12.80
2022-10-09T07:04:28.619Z,11.00
2022-10-09T07:06:56.595Z,13.30
2022-10-09T07:09:25.280Z,12.20
2022-10-09T07:11:53.678Z,13.10
2022-10-09T07:14:22.827Z,9.90
2022-10-09T07:16:52.144Z,13.50
2022-10-09T07:19:20.182Z,11.20
2022-10-09T07:21:49.564Z,11.20
2022-10-09T07:24:20.537Z,13.80
2022-10-09T07:26:48.877Z,12.90
2022-10-09T07:29:19.664Z,15.00
2022-10-09T07:31:49.965Z,12.90
2022-10-09T07:34:17.876Z,14.30
2022-10-09T07:36:45.788Z,13.10
2022-10-09T07:39:13.921Z,12.20
2022-10-09T07:41:41.853Z,10.30
2022-10-09T07:44:10.521Z,11.00
2022-10-09T07:46:38.618Z,12.90
2022-10-09T07:49:08.403Z,12.90
2022-10-09T07:51:36.951Z,9.80
2022-10-09T07:54:05.040Z,9.90
2022-10-09T07:56:35.881Z,10.70
2022-10-09T07:59:15.008Z,12.70
2022-10-09T08:01:43.248Z,10.90
2022-10-09T08:04:11.302Z,13.90
2022-10-09T08:06:39.595Z,10.70
2022-10-09T08:09:08.145Z,9.50
2022-10-09T08:11:40.789Z,11.90
2022-10-09T08:14:18.744Z,11.10
2022-10-09T08:16:48.025Z,13.50
2022-10-09T08:19:16.719Z,14.20
2022-10-09T08:21:46.214Z,14.70
2022-10-09T08:24:14.596Z,12.20
2022-10-09T08:26:44.298Z,11.00
2022-10-09T08:29:14.107Z,13.20
2022-10-09T08:31:42.542Z,12.00
2022-10-09T08:34:12.106Z,11.60
2022-10-09T08:36:40.061Z,10.50
2022-10-09T08:39:08.538Z,9.70
2022-10-09T08:41:57.924Z,11.90
2022-10-09T08:44:49.315Z,11.50
2022-10-09T08:47:26.818Z,11.10
2022-10-09T08:49:58.157Z,12.60
2022-10-09T08:52:39.036Z,13.50
2022-10-09T08:55:27.094Z,12.30
2022-10-09T08:57:57.031Z,11.20
2022-10-09T09:00:29.536Z,11.20
2022-10-09T09:03:14.894Z,8.10
2022-10-09T09:06:09.038Z,12.00
2022-10-09T09:09:06.476Z,11.30
2022-10-09T09:11:43.270Z,11.20
2022-10-09T09:14:30.081Z,10.40
2022-10-09T09:17:17.074Z,10.00
2022-10-09T09:20:02.241Z,14.40
2022-10-09T09:22:33.986Z,14.70
2022-10-09T09:25:16.846Z,10.20
2022-10-09T09:27:45.357Z,10.80
2022-10-09T09:30:18.982Z,13.80
2022-10-09T09:33:12.936Z,10.80
2022-10-09T09:35:54.112Z,12.00
2022-10-09T09:38:22.249Z,11.30
2022-10-09T09:40:50.963Z,12.60
2022-10-09T09:43:21.474Z,13.40
2022-10-09T09:45:53.115Z,10.20
2022-10-09T09:48:35.840Z,8.60
2022-10-09T09:51:28.051Z,11.80
2022-10-09T09:54:07.941Z,9.90
2022-10-09T09:59:42.215Z,9.00
2022-10-09T10:02:23.230Z,14.00
2022-10-09T10:05:15.086Z,10.20
2022-10-09T10:07:44.347Z,9.60
2022-10-09T10:10:26.696Z,8.60
2022-10-09T10:13:00.762Z,11.00
2022-10-09T10:15:32.072Z,9.70
2022-10-09T10:18:13.069Z,10.60
2022-10-09T10:20:48.399Z,8.50
2022-10-09T10:23:33.525Z,11.20
2022-10-09T10:26:07.072Z,10.80
2022-10-09T10:28:45.858Z,8.70
2022-10-09T10:31:32.672Z,9.90
2022-10-09T10:34:05.257Z,8.70
2022-10-09T10:36:34.151Z,11.60
2022-10-09T10:39:27.462Z,9.50
2022-10-09T10:42:01.702Z,10.80
2022-10-09T10:44:47.716Z,10.90
2022-10-09T10:47:21.470Z,9.40
2022-10-09T10:49:50.236Z,14.40
2022-10-09T10:52:59.427Z,12.10
2022-10-09T10:55:38.317Z,15.20
2022-10-09T10:58:17.400Z,10.90
2022-10-09T11:00:54.417Z,14.80
2022-10-09T11:03:37.609Z,12.40
2022-10-09T11:06:19.987Z,11.30
2022-10-09T11:09:16.329Z,9.60
2022-10-09T11:12:00.497Z,11.70
2022-10-09T11:14:44.766Z,10.50
2022-10-09T11:17:31.101Z,12.90
2022-10-09T11:20:08.899Z,12.20
2022-10-09T11:22:49.289Z,11.10
2022-10-09T11:25:45.675Z,10.20
2022-10-09T11:28:31.116Z,10.30
2022-10-09T11:31:22.698Z,14.70
2022-10-09T11:33:54.794Z,8.40
2022-10-09T11:36:34.514Z,10.60
2022-10-09T11:39:06.202Z,10.10
2022-10-09T11:41:38.027Z,13.40
2022-10-09T11:44:43.785Z,10.00
2022-10-09T11:47:17.932Z,10.90
2022-10-09T11:50:04.435Z,10.90
2022-10-09T11:52:57.847Z,12.20
2022-10-09T11:55:29.407Z,9.50
2022-10-09T11:58:24.087Z,11.00
2022-10-09T12:00:58.120Z,9.80
2022-10-09T12:03:34.058Z,11.10
2022-10-09T12:06:16.011Z,9.60
2022-10-09T12:08:56.822Z,9.30
2022-10-09T12:11:26.447Z,9.70
2022-10-09T12:14:04.905Z,9.70
2022-10-09T12:16:35.323Z,10.70
2022-10-09T12:19:17.015Z,10.60
2022-10-09T12:22:03.280Z,10.20
2022-10-09T12:24:38.425Z,9.60
2022-10-09T12:27:08.158Z,8.70
2022-10-09T12:29:44.596Z,12.10
2022-10-09T12:32:55.684Z,12.00
2022-10-09T12:35:38.772Z,12.10
2022-10-09T12:38:18.386Z,8.70
2022-10-09T12:40:48.202Z,9.00
2022-10-09T12:43:19.527Z,10.50
2022-10-09T12:45:50.875Z,9.00
2022-10-09T12:48:23.090Z,7.50
2022-10-09T12:50:51.743Z,13.10
2022-10-09T12:53:28.610Z,8.20
2022-10-09T12:56:01.166Z,10.30
2022-10-09T12:58:32.491Z,10.60
2022-10-09T13:01:04.519Z,9.70
2022-10-09T13:03:36.129Z,10.90
2022-10-09T13:06:08.615Z,7.70
2022-10-09T13:08:39.079Z,10.80
2022-10-09T13:11:28.880Z,9.80
2022-10-09T13:13:57.522Z,10.20
2022-10-09T13:16:26.722Z,12.00
2022-10-09T13:18:57.792Z,7.70
2022-10-09T13:21:32.787Z,10.20
2022-10-09T13:24:15.965Z,10.50
2022-10-09T13:26:44.166Z,9.90
2022-10-09T13:29:14.770Z,11.50
2022-10-09T13:31:43.896Z,7.80
2022-10-09T13:34:13.648Z,8.70
2022-10-09T13:36:41.715Z,11.70
2022-10-09T13:39:15.066Z,10.70
2022-10-09T13:41:44.784Z,13.30
2022-10-09T13:44:12.691Z,13.00
2022-10-09T13:46:40.948Z,8.80
2022-10-09T13:49:08.893Z,8.80
2022-10-09T13:51:36.951Z,13.40
2022-10-09T13:54:05.124Z,8.70
2022-10-09T13:56:33.402Z,11.10
2022-10-09T13:59:01.310Z,11.40
2022-10-09T14:01:29.342Z,9.40
2022-10-09T14:03:57.516Z,9.90
2022-10-09T14:06:25.889Z,8.80
2022-10-09T14:08:54.232Z,8.20
2022-10-09T14:11:22.326Z,9.60
2022-10-09T14:13:50.595Z,8.80
2022-10-09T14:16:18.744Z,11.90
2022-10-09T14:18:46.788Z,11.60
2022-10-09T14:21:16.054Z,8.50
2022-10-09T14:23:44.018Z,8.90
2022-10-09T14:26:11.937Z,7.80
2022-10-09T14:28:40.185Z,11.00
2022-10-09T14:31:08.422Z,8.60
2022-10-09T14:33:36.753Z,9.20
2022-10-09T14:36:09.987Z,12.50
2022-10-09T14:38:39.824Z,10.00
2022-10-09T14:41:09.281Z,9.70
2022-10-09T14:43:37.305Z,10.90
2022-10-09T14:46:08.499Z,9.30
2022-10-09T14:48:36.295Z,9.30
2022-10-09T14:51:11.346Z,9.40
2022-10-09T14:53:39.861Z,7.90
2022-10-09T14:56:11.722Z,10.70
2022-10-09T14:58:40.524Z,10.30
2022-10-09T15:01:13.150Z,10.70
2022-10-09T15:03:41.967Z,11.10
2022-10-09T15:06:12.981Z,12.60
2022-10-09T15:08:42.431Z,7.50
2022-10-09T15:11:12.449Z,10.00
2022-10-09T15:13:40.669Z,9.30
2022-10-09T15:16:15.073Z,7.80
2022-10-09T15:18:44.216Z,9.30
2022-10-09T15:21:17.713Z,9.40
2022-10-09T15:23:46.987Z,7.50
2022-10-09T15:26:17.551Z,8.30
2022-10-09T15:28:46.058Z,8.20
2022-10-09T15:31:24.553Z,7.40
2022-10-09T15:33:54.655Z,8.80
2022-10-09T15:36:23.985Z,6.60
2022-10-09T15:38:51.827Z,7.20
2022-10-09T15:41:41.164Z,8.80
2022-10-09T15:44:18.755Z,9.30
2022-10-09T15:46:48.499Z,9.60
2022-10-09T15:49:17.314Z,6.40
2022-10-09T15:51:45.274Z,10.60
2022-10-09T15:54:14.942Z,6.00
2022-10-09T15:56:43.100Z,9.70
2022-10-09T15:59:13.767Z,9.20
2022-10-09T16:01:42.102Z,14.80
2022-10-09T16:04:11.177Z,14.10
2022-10-09T16:06:39.277Z,18.00
2022-10-09T16:09:08.540Z,22.20
2022-10-09T16:11:46.120Z,24.30
2022-10-09T16:14:14.892Z,22.70
2022-10-09T16:16:43.029Z,22.20
2022-10-09T16:19:11.815Z,23.60
2022-10-09T16:21:39.972Z,22.40
2022-10-09T16:24:10.237Z,24.20
2022-10-09T16:26:38.391Z,23.10
2022-10-09T16:29:06.454Z,23.60
2022-10-09T16:31:36.373Z,22.80
2022-10-09T16:34:06.524Z,21.20
2022-10-09T16:36:35.796Z,22.30
2022-10-09T16:39:04.090Z,19.80
2022-10-09T16:41:32.243Z,17.50
2022-10-09T16:44:00.622Z,20.10
2022-10-09T16:49:03.365Z,20.20
2022-10-09T16:51:34.544Z,20.90
2022-10-09T16:54:04.529Z,20.60
2022-10-09T16:56:35.532Z,18.00
2022-10-09T16:59:06.182Z,18.90
2022-10-09T17:01:40.431Z,19.20
2022-10-09T17:04:08.453Z,18.70
2022-10-09T17:06:37.023Z,23.40
2022-10-09T17:09:13.806Z,29.50
2022-10-09T17:11:42.685Z,44.40
2022-10-09T17:14:10.688Z,56.20
2022-10-09T17:16:40.371Z,62.90
2022-10-09T17:19:09.159Z,61.50
2022-10-09T17:21:37.209Z,80.60
2022-10-09T17:24:06.047Z,78.30
2022-10-09T17:26:35.218Z,72.30
2022-10-09T17:29:04.791Z,69.70
2022-10-09T17:31:34.346Z,90.70
2022-10-09T17:34:04.062Z,81.90
2022-10-09T17:36:35.539Z,70.60
2022-10-09T17:39:05.975Z,55.60
2022-10-09T17:41:34.404Z,51.80
2022-10-09T17:44:03.434Z,44.50
2022-10-09T17:46:32.305Z,47.50
2022-10-09T17:49:01.388Z,46.00
2022-10-09T17:51:34.783Z,55.80
2022-10-09T17:54:11.713Z,55.10
2022-10-09T17:56:41.176Z,49.00
2022-10-09T17:59:09.829Z,50.30
2022-10-09T18:01:37.877Z,47.40
2022-10-09T18:04:06.151Z,47.10
2022-10-09T18:06:34.956Z,57.60
2022-10-09T18:09:04.438Z,59.50
2022-10-09T18:11:33.112Z,61.90
2022-10-09T18:14:01.643Z,93.70
2022-10-09T18:16:36.212Z,90.50
2022-10-09T18:19:13.186Z,95.30
2022-10-09T18:21:45.396Z,91.10
2022-10-09T18:24:14.843Z,104.50
2022-10-09T18:26:43.173Z,101.20
2022-10-09T18:29:11.796Z,107.40
2022-10-09T18:31:40.189Z,116.90
2022-10-09T18:34:09.821Z,112.50
2022-10-09T18:36:38.376Z,114.60
2022-10-09T18:39:10.068Z,107.50
2022-10-09T18:41:39.619Z,103.10
2022-10-09T18:44:17.988Z,104.80
2022-10-09T18:46:54.364Z,104.20
2022-10-09T18:49:30.333Z,115.10
2022-10-09T18:52:00.532Z,97.90
2022-10-09T18:54:30.623Z,116.10
2022-10-09T18:56:59.134Z,141.00
2022-10-09T18:59:27.238Z,140.80
2022-10-09T19:01:56.644Z,168.80
2022-10-09T19:04:24.834Z,222.30
2022-10-09T19:06:55.460Z,257.10
2022-10-09T19:09:32.693Z,279.10
2022-10-09T19:12:01.297Z,299.70
2022-10-09T19:14:29.688Z,320.30
2022-10-09T19:16:57.798Z,288.90
2022-10-09T19:19:25.851Z,193.10
2022-10-09T19:21:54.466Z,148.00
2022-10-09T19:24:22.892Z,148.50
2022-10-09T19:26:50.812Z,157.70
2022-10-09T19:29:19.181Z,143.00
2022-10-09T19:31:47.527Z,135.70
2022-10-09T19:34:18.889Z,138.90
2022-10-09T19:36:51.072Z,121.90
2022-10-09T19:39:19.650Z,101.10
2022-10-09T19:41:51.058Z,92.60
2022-10-09T19:44:19.906Z,88.90
2022-10-09T19:46:48.589Z,79.90
2022-10-09T19:49:16.699Z,67.80
2022-10-09T19:51:45.973Z,56.30
2022-10-09T19:54:13.883Z,58.00
2022-10-09T19:56:42.094Z,56.20
2022-10-09T19:59:10.635Z,49.90
2022-10-09T20:01:40.410Z,61.20
2022-10-09T20:04:11.080Z,65.90
2022-10-09T20:06:41.712Z,55.60
2022-10-09T20:09:15.143Z,66.10
2022-10-09T20:11:43.181Z,73.70
2022-10-09T20:14:11.419Z,85.50
2022-10-09T20:16:41.376Z,79.10
2022-10-09T20:19:09.587Z,74.90
2022-10-09T20:21:37.755Z,62.00
2022-10-09T20:24:06.560Z,56.00
2022-10-09T20:26:34.597Z,46.30
2022-10-09T20:29:02.797Z,41.20
2022-10-09T20:31:31.214Z,43.80
2022-10-09T20:33:59.390Z,36.90
2022-10-09T20:36:28.938Z,40.40
2022-10-09T20:39:02.206Z,41.00
2022-10-09T20:41:31.719Z,40.20
2022-10-09T20:44:01.950Z,48.00
2022-10-09T20:46:32.188Z,52.40
2022-10-09T20:49:03.502Z,75.80
2022-10-09T20:51:31.679Z,73.30
2022-10-09T20:54:00.590Z,80.50
2022-10-09T20:56:30.686Z,74.20
2022-10-09T20:59:00.126Z,69.10
2022-10-09T21:01:28.946Z,64.60
2022-10-09T21:03:59.332Z,64.10
2022-10-09T21:06:27.889Z,54.90
2022-10-09T21:08:57.543Z,52.10
2022-10-09T21:11:26.205Z,50.90
2022-10-09T21:13:54.341Z,48.40
2022-10-09T21:16:24.448Z,49.90
2022-10-09T21:18:57.891Z,44.60
2022-10-09T21:21:27.411Z,44.10
2022-10-09T21:23:58.880Z,40.00
2022-10-09T21:26:28.635Z,42.70
2022-10-09T21:28:59.622Z,45.80
2022-10-09T21:31:29.981Z,37.40
2022-10-09T21:34:01.388Z,40.80
2022-10-09T21:37:16.469Z,36.20
2022-10-09T21:39:36.958Z,37.30
2022-10-09T21:42:05.121Z,34.70
2022-10-09T21:44:33.314Z,42.90
2022-10-09T21:47:01.684Z,46.90
2022-10-09T21:49:30.425Z,44.50
2022-10-09T21:51:58.446Z,44.30
2022-10-09T21:54:26.665Z,41.90
2022-10-09T21:56:55.000Z,39.70
2022-10-09T21:59:22.790Z,38.30
2022-10-09T22:01:51.133Z,42.90
2022-10-09T22:04:19.824Z,39.60
2022-10-09T22:06:47.778Z,36.20
2022-10-09T22:09:15.846Z,40.70
2022-10-09T22:11:45.444Z,51.30
2022-10-09T22:14:13.991Z,45.40
2022-10-09T22:16:42.092Z,37.60
2022-10-09T22:19:10.310Z,41.00
2022-10-09T22:21:38.321Z,40.90
2022-10-09T22:24:06.535Z,39.80
2022-10-09T22:26:34.907Z,39.10
2022-10-09T22:29:02.810Z,38.40
2022-10-09T22:31:31.114Z,46.70
2022-10-09T22:34:01.860Z,38.30
2022-10-09T22:36:32.830Z,36.50
2022-10-09T22:39:03.865Z,43.60
2022-10-09T22:41:34.341Z,36.20
2022-10-09T22:44:04.513Z,43.30
2022-10-09T22:46:38.164Z,38.80
2022-10-09T22:49:08.742Z,39.80
2022-10-09T22:51:36.685Z,44.80
2022-10-09T22:54:04.796Z,42.90
2022-10-09T22:56:38.377Z,39.10
2022-10-09T22:59:08.163Z,37.80
2022-10-09T23:01:44.237Z,39.90
2022-10-09T23:04:13.774Z,43.70
2022-10-09T23:06:43.271Z,39.00
2022-10-09T23:09:13.997Z,42.60
2022-10-09T23:11:42.838Z,41.80
2022-10-09T23:14:12.240Z,36.70
2022-10-09T23:16:40.699Z,42.70
2022-10-09T23:19:09.432Z,41.60
2022-10-09T23:21:39.796Z,41.90
2022-10-09T23:24:10.691Z,45.40
2022-10-09T23:26:40.153Z,42.00
2022-10-09T23:29:14.460Z,40.00
2022-10-09T23:31:42.592Z,40.00
2022-10-09T23:34:10.818Z,40.10
2022-10-09T23:36:39.086Z,44.30
2022-10-09T23:39:07.577Z,38.90
2022-10-09T23:41:35.630Z,40.80
2022-10-09T23:44:03.825Z,38.70
2022-10-09T23:46:35.641Z,41.40
2022-10-09T23:49:05.043Z,38.10
2022-10-09T23:51:34.161Z,41.90
2022-10-09T23:54:02.014Z,34.70
2022-10-09T23:56:32.927Z,39.30
2022-10-09T23:59:03.745Z,31.60
